map of AUA home
AUA - Airport
Location
City:  Aruba, Aruba
Near (Alt.):Oranjestad
Name:Reina Beatrix International Airport
Old (Alt.):Queen Beatrix International]
ICAO:TNCA
IATA:AUA

Details
Type:Airport (Aerodrome, Airfield)
Use:Public/Civil, International (customs port of entry)
Latitude:1230'05"N (12.501389)
Longitude:7000'55"W (-70.015220)
Datum:WGS 1984
Elevation:60 ft (18 m)
Variation:10.77W (WMM2015 magnetic declination)
-0.10 annual change
Runways:1
Longest:9000 × 148 ft (2743 × 45 m), paved

Time
Time Zone:UTC-4
Local Time:

Weather
METAR:TNCA 121700Z 16009KT 120V190 9999 FEW020 29/25 Q1011 A2988 NOSIG
TAF:TNCA 130532Z 1206/1306 04006KT 9999 SCT018
TEMPO 1206/1210 BKN014

Related Locations
Nearby:
Farthest:XCH: 12122 mi / 19509 km
Christmas Island, CX

Find:

   beyond  
but within

Other Information
Maps:
NOTAMs:
Links:
Sources:

  
flag of Aruba   

Sectional Chart

Flight Planning
at skyvector.com

Satellite Image

Google Maps Satellite view

 

Copyright © 2004-2017 Karl L. Swartz. All rights reserved.
The Great Circle Mapper name and logo are trademarks of the Great Circle Mapper.
All other trademarks mentioned herein belong to their respective owners.
Please see credits for attibutions and further copyright information.

  Follow gcmap on Facebook Follow gcmap on Twitter Follow gcmap on Google+ GCmap on LinkedIn

hCard Microformat

Geo Microformat